Pagrindinis puslapis
METAR-TAF:

METAR-TAF

Oro uostai :

Arvidsjaur, Švedija

platuma: 65-35-25N, ilguma: 019-16-55E, Aukštis: 379 m

Dabartinis oras

Ataskaita buvo paskelbta 22 minutes, ne 02:20 UTC
Vėjas 7 kt iš Rytų
Temperatūra -7°C
Drėgmė 93%
Slėgis 985 hPa
Matomumas: 5000 m
sniegas

METAR: ESNX 020220Z AUTO 10007KT 5000 -SN ///039/// M07/M08 Q0985

Laikas: 04:42 (02:42 UTC)

Prognozė

Ataskaita buvo paskelbta 14 valandos ir 12 minutes, ne 12:30 UTC
Prognozė galioja nuo 01 metu 13 UTC su 01 metu 16 UTC
Vėjas 7 kt iš Šiaurės
Matomumas 10 km arba daugiau
Išsisklaidę debesys ne aukštis 4500 ft

TAF: ESNX 011230Z 0113/0116 35007KT 9999 SCT045

Orai ataskaitas ir orų prognozės (METAR, TAF).

turimą stotys yra geltonos ir raudonos taškus žemėlapyje.

Perkelti pele per norėdami pamatyti stoties vardą.

Tada spustelėkite, norėdami matyti oro stebėjimo ir prognozės.

Norėdami pakeisti žemėlapį: spustelėkite ant žalios mygtukų su juodo kryžiaus žemyn,; žalią mygtuką su brūkšneliu, jei norite nutolinti; arba žalių rodyklių gretimoms žemėlapius.


METAR-TAF: